sensor_id;sensor_type;location;lat;lon;timestamp;P1;durP1;ratioP1;P2;durP2;ratioP2
7412;SDS011;3748;48.136;11.538;2023-02-01T00:00:29;5.67;;;2.60;;
7412;SDS011;3748;48.136;11.538;2023-02-01T00:02:59;3.90;;;3.30;;
7412;SDS011;3748;48.136;11.538;2023-02-01T00:05:27;4.23;;;3.27;;
7412;SDS011;3748;48.136;11.538;2023-02-01T00:07:53;5.13;;;3.13;;
7412;SDS011;3748;48.136;11.538;2023-02-01T00:10:20;4.60;;;3.40;;
7412;SDS011;3748;48.136;11.538;2023-02-01T00:12:47;4.40;;;2.63;;
7412;SDS011;3748;48.136;11.538;2023-02-01T00:15:14;4.23;;;2.73;;
7412;SDS011;3748;48.136;11.538;2023-02-01T00:17:41;3.43;;;3.13;;
7412;SDS011;3748;48.136;11.538;2023-02-01T00:20:10;4.20;;;2.40;;
7412;SDS011;3748;48.136;11.538;2023-02-01T00:22:37;4.17;;;2.50;;
7412;SDS011;3748;48.136;11.538;2023-02-01T00:25:04;5.13;;;3.23;;
7412;SDS011;3748;48.136;11.538;2023-02-01T00:27:32;3.63;;;3.30;;
7412;SDS011;3748;48.136;11.538;2023-02-01T00:29:59;4.80;;;3.63;;
7412;SDS011;3748;48.136;11.538;2023-02-01T00:32:25;6.67;;;3.53;;
7412;SDS011;3748;48.136;11.538;2023-02-01T00:34:52;4.50;;;2.70;;
7412;SDS011;3748;48.136;11.538;2023-02-01T00:37:20;4.47;;;3.50;;
7412;SDS011;3748;48.136;11.538;2023-02-01T00:39:48;5.33;;;2.77;;
7412;SDS011;3748;48.136;11.538;2023-02-01T00:42:15;4.67;;;3.87;;
7412;SDS011;3748;48.136;11.538;2023-02-01T00:44:42;4.80;;;3.17;;
7412;SDS011;3748;48.136;11.538;2023-02-01T00:47:08;3.40;;;2.63;;
7412;SDS011;3748;48.136;11.538;2023-02-01T00:49:35;2.80;;;2.60;;
7412;SDS011;3748;48.136;11.538;2023-02-01T00:52:02;3.67;;;3.37;;
7412;SDS011;3748;48.136;11.538;2023-02-01T00:54:31;3.53;;;3.13;;
7412;SDS011;3748;48.136;11.538;2023-02-01T00:56:59;5.10;;;3.50;;
7412;SDS011;3748;48.136;11.538;2023-02-01T00:59:26;4.50;;;3.50;;
7412;SDS011;3748;48.136;11.538;2023-02-01T01:01:53;4.53;;;4.13;;
7412;SDS011;3748;48.136;11.538;2023-02-01T01:04:20;6.40;;;4.90;;
7412;SDS011;3748;48.136;11.538;2023-02-01T01:06:47;5.70;;;4.30;;
7412;SDS011;3748;48.136;11.538;2023-02-01T01:09:14;3.57;;;3.20;;
7412;SDS011;3748;48.136;11.538;2023-02-01T01:11:42;5.53;;;4.03;;
7412;SDS011;3748;48.136;11.538;2023-02-01T01:14:09;4.40;;;4.00;;
7412;SDS011;3748;48.136;11.538;2023-02-01T01:16:37;4.50;;;4.07;;
7412;SDS011;3748;48.136;11.538;2023-02-01T01:19:04;5.00;;;3.07;;
7412;SDS011;3748;48.136;11.538;2023-02-01T01:21:31;6.80;;;4.53;;
7412;SDS011;3748;48.136;11.538;2023-02-01T01:23:58;4.97;;;4.47;;
7412;SDS011;3748;48.136;11.538;2023-02-01T01:26:27;5.20;;;3.90;;
7412;SDS011;3748;48.136;11.538;2023-02-01T01:28:56;5.83;;;3.90;;
7412;SDS011;3748;48.136;11.538;2023-02-01T01:31:24;4.40;;;3.70;;
7412;SDS011;3748;48.136;11.538;2023-02-01T01:33:52;4.63;;;3.97;;
7412;SDS011;3748;48.136;11.538;2023-02-01T01:36:20;5.90;;;4.23;;
7412;SDS011;3748;48.136;11.538;2023-02-01T01:38:47;6.20;;;4.53;;
7412;SDS011;3748;48.136;11.538;2023-02-01T01:41:16;5.07;;;3.83;;
7412;SDS011;3748;48.136;11.538;2023-02-01T01:46:32;8.60;;;4.97;;
7412;SDS011;3748;48.136;11.538;2023-02-01T01:49:02;7.10;;;4.43;;
7412;SDS011;3748;48.136;11.538;2023-02-01T01:51:35;6.10;;;5.20;;
7412;SDS011;3748;48.136;11.538;2023-02-01T01:54:04;7.07;;;6.30;;
7412;SDS011;3748;48.136;11.538;2023-02-01T01:56:33;8.33;;;4.90;;
7412;SDS011;3748;48.136;11.538;2023-02-01T01:59:01;8.97;;;5.60;;
7412;SDS011;3748;48.136;11.538;2023-02-01T02:01:31;8.73;;;5.97;;
7412;SDS011;3748;48.136;11.538;2023-02-01T02:03:58;10.33;;;7.00;;
7412;SDS011;3748;48.136;11.538;2023-02-01T02:06:29;9.07;;;5.83;;
7412;SDS011;3748;48.136;11.538;2023-02-01T02:09:02;8.80;;;5.83;;
7412;SDS011;3748;48.136;11.538;2023-02-01T02:11:29;11.00;;;5.57;;
7412;SDS011;3748;48.136;11.538;2023-02-01T02:13:56;9.40;;;6.80;;
7412;SDS011;3748;48.136;11.538;2023-02-01T02:16:40;7.37;;;5.60;;
7412;SDS011;3748;48.136;11.538;2023-02-01T02:19:24;7.50;;;5.60;;
7412;SDS011;3748;48.136;11.538;2023-02-01T02:25:17;11.57;;;6.70;;
7412;SDS011;3748;48.136;11.538;2023-02-01T02:28:05;8.17;;;5.33;;
7412;SDS011;3748;48.136;11.538;2023-02-01T02:30:51;13.30;;;7.10;;
7412;SDS011;3748;48.136;11.538;2023-02-01T02:33:42;8.73;;;7.13;;
7412;SDS011;3748;48.136;11.538;2023-02-01T02:36:25;4.47;;;3.90;;
7412;SDS011;3748;48.136;11.538;2023-02-01T02:39:05;8.50;;;5.63;;
7412;SDS011;3748;48.136;11.538;2023-02-01T02:41:37;7.10;;;5.17;;
7412;SDS011;3748;48.136;11.538;2023-02-01T02:44:30;8.33;;;4.63;;
7412;SDS011;3748;48.136;11.538;2023-02-01T02:47:20;7.10;;;6.10;;
7412;SDS011;3748;48.136;11.538;2023-02-01T02:49:52;4.73;;;4.23;;
7412;SDS011;3748;48.136;11.538;2023-02-01T02:52:51;6.50;;;4.67;;
7412;SDS011;3748;48.136;11.538;2023-02-01T02:55:40;10.40;;;6.60;;
7412;SDS011;3748;48.136;11.538;2023-02-01T02:58:09;6.33;;;5.07;;
7412;SDS011;3748;48.136;11.538;2023-02-01T03:00:55;7.40;;;4.97;;
7412;SDS011;3748;48.136;11.538;2023-02-01T03:03:41;6.67;;;5.63;;
7412;SDS011;3748;48.136;11.538;2023-02-01T03:06:28;5.67;;;4.20;;
7412;SDS011;3748;48.136;11.538;2023-02-01T03:08:55;7.50;;;5.60;;
7412;SDS011;3748;48.136;11.538;2023-02-01T03:11:25;6.30;;;4.30;;
7412;SDS011;3748;48.136;11.538;2023-02-01T03:14:13;6.37;;;5.00;;
7412;SDS011;3748;48.136;11.538;2023-02-01T03:16:41;7.30;;;4.87;;
7412;SDS011;3748;48.136;11.538;2023-02-01T03:19:14;7.50;;;3.30;;
7412;SDS011;3748;48.136;11.538;2023-02-01T03:21:47;5.03;;;4.53;;
7412;SDS011;3748;48.136;11.538;2023-02-01T03:24:20;8.20;;;5.33;;
7412;SDS011;3748;48.136;11.538;2023-02-01T03:26:58;7.20;;;5.10;;
7412;SDS011;3748;48.136;11.538;2023-02-01T03:29:31;6.10;;;4.10;;
7412;SDS011;3748;48.136;11.538;2023-02-01T03:32:03;6.47;;;4.10;;
7412;SDS011;3748;48.136;11.538;2023-02-01T03:34:30;7.10;;;3.53;;
7412;SDS011;3748;48.136;11.538;2023-02-01T03:36:59;4.50;;;4.10;;
7412;SDS011;3748;48.136;11.538;2023-02-01T03:39:29;6.93;;;4.40;;
7412;SDS011;3748;48.136;11.538;2023-02-01T03:41:59;5.37;;;4.83;;
7412;SDS011;3748;48.136;11.538;2023-02-01T03:44:29;5.47;;;4.50;;
7412;SDS011;3748;48.136;11.538;2023-02-01T03:47:03;8.83;;;4.00;;
7412;SDS011;3748;48.136;11.538;2023-02-01T03:49:34;6.83;;;5.07;;
7412;SDS011;3748;48.136;11.538;2023-02-01T03:52:05;5.17;;;3.67;;
7412;SDS011;3748;48.136;11.538;2023-02-01T03:54:34;5.23;;;4.43;;
7412;SDS011;3748;48.136;11.538;2023-02-01T03:57:05;6.03;;;3.70;;
7412;SDS011;3748;48.136;11.538;2023-02-01T03:59:38;5.23;;;4.47;;
7412;SDS011;3748;48.136;11.538;2023-02-01T04:02:06;5.47;;;3.83;;
7412;SDS011;3748;48.136;11.538;2023-02-01T04:04:33;5.00;;;4.50;;
7412;SDS011;3748;48.136;11.538;2023-02-01T04:07:00;4.73;;;4.10;;
7412;SDS011;3748;48.136;11.538;2023-02-01T04:09:28;4.80;;;4.30;;
7412;SDS011;3748;48.136;11.538;2023-02-01T04:11:55;6.23;;;4.03;;
7412;SDS011;3748;48.136;11.538;2023-02-01T04:14:22;6.23;;;3.80;;
7412;SDS011;3748;48.136;11.538;2023-02-01T04:16:49;6.50;;;4.00;;
7412;SDS011;3748;48.136;11.538;2023-02-01T04:19:16;5.07;;;4.27;;
7412;SDS011;3748;48.136;11.538;2023-02-01T04:21:43;6.43;;;4.90;;
7412;SDS011;3748;48.136;11.538;2023-02-01T04:24:10;7.33;;;4.30;;
7412;SDS011;3748;48.136;11.538;2023-02-01T04:26:38;7.10;;;4.67;;
7412;SDS011;3748;48.136;11.538;2023-02-01T04:29:05;5.63;;;3.87;;
7412;SDS011;3748;48.136;11.538;2023-02-01T04:31:32;5.00;;;4.50;;
7412;SDS011;3748;48.136;11.538;2023-02-01T04:34:00;7.53;;;5.67;;
7412;SDS011;3748;48.136;11.538;2023-02-01T04:36:27;5.30;;;4.23;;
7412;SDS011;3748;48.136;11.538;2023-02-01T04:38:54;8.80;;;5.87;;
7412;SDS011;3748;48.136;11.538;2023-02-01T04:41:20;5.60;;;4.83;;
7412;SDS011;3748;48.136;11.538;2023-02-01T04:43:49;5.30;;;3.33;;
7412;SDS011;3748;48.136;11.538;2023-02-01T04:46:17;5.30;;;4.23;;
7412;SDS011;3748;48.136;11.538;2023-02-01T04:48:44;3.90;;;3.43;;
7412;SDS011;3748;48.136;11.538;2023-02-01T04:51:11;8.13;;;5.13;;
7412;SDS011;3748;48.136;11.538;2023-02-01T04:53:37;6.03;;;4.53;;
7412;SDS011;3748;48.136;11.538;2023-02-01T04:56:05;6.33;;;3.30;;
7412;SDS011;3748;48.136;11.538;2023-02-01T04:58:33;6.70;;;5.27;;
7412;SDS011;3748;48.136;11.538;2023-02-01T05:01:03;6.87;;;4.50;;
7412;SDS011;3748;48.136;11.538;2023-02-01T05:03:30;4.03;;;3.67;;
7412;SDS011;3748;48.136;11.538;2023-02-01T05:05:57;10.50;;;5.43;;
7412;SDS011;3748;48.136;11.538;2023-02-01T05:08:24;7.57;;;5.97;;
7412;SDS011;3748;48.136;11.538;2023-02-01T05:10:52;5.83;;;5.07;;
7412;SDS011;3748;48.136;11.538;2023-02-01T05:13:18;7.00;;;4.97;;
7412;SDS011;3748;48.136;11.538;2023-02-01T05:16:04;6.70;;;3.90;;
7412;SDS011;3748;48.136;11.538;2023-02-01T05:18:32;7.23;;;5.70;;
7412;SDS011;3748;48.136;11.538;2023-02-01T05:20:58;6.10;;;5.30;;
7412;SDS011;3748;48.136;11.538;2023-02-01T05:23:26;6.67;;;5.00;;
7412;SDS011;3748;48.136;11.538;2023-02-01T05:25:57;8.90;;;6.33;;
7412;SDS011;3748;48.136;11.538;2023-02-01T05:28:24;8.20;;;5.70;;
7412;SDS011;3748;48.136;11.538;2023-02-01T05:30:51;6.20;;;3.77;;
7412;SDS011;3748;48.136;11.538;2023-02-01T05:33:19;5.73;;;5.10;;
7412;SDS011;3748;48.136;11.538;2023-02-01T05:35:46;5.70;;;5.07;;
7412;SDS011;3748;48.136;11.538;2023-02-01T05:38:13;7.03;;;5.20;;
7412;SDS011;3748;48.136;11.538;2023-02-01T05:40:40;6.57;;;4.30;;
7412;SDS011;3748;48.136;11.538;2023-02-01T05:43:07;7.10;;;6.00;;
7412;SDS011;3748;48.136;11.538;2023-02-01T05:45:33;6.20;;;5.20;;
7412;SDS011;3748;48.136;11.538;2023-02-01T05:48:01;8.87;;;6.53;;
7412;SDS011;3748;48.136;11.538;2023-02-01T05:50:31;7.87;;;5.03;;
7412;SDS011;3748;48.136;11.538;2023-02-01T05:52:58;7.93;;;4.40;;
7412;SDS011;3748;48.136;11.538;2023-02-01T05:55:24;6.97;;;6.27;;
7412;SDS011;3748;48.136;11.538;2023-02-01T05:57:51;6.30;;;5.67;;
7412;SDS011;3748;48.136;11.538;2023-02-01T06:00:18;9.80;;;6.27;;
7412;SDS011;3748;48.136;11.538;2023-02-01T06:02:46;3.73;;;3.30;;
7412;SDS011;3748;48.136;11.538;2023-02-01T06:05:13;6.50;;;5.20;;
7412;SDS011;3748;48.136;11.538;2023-02-01T06:07:44;8.43;;;6.50;;
7412;SDS011;3748;48.136;11.538;2023-02-01T06:10:13;8.87;;;6.53;;
7412;SDS011;3748;48.136;11.538;2023-02-01T06:12:40;8.17;;;6.27;;
7412;SDS011;3748;48.136;11.538;2023-02-01T06:15:07;11.50;;;4.40;;
7412;SDS011;3748;48.136;11.538;2023-02-01T06:17:34;4.47;;;3.77;;
7412;SDS011;3748;48.136;11.538;2023-02-01T06:20:01;7.90;;;6.37;;
7412;SDS011;3748;48.136;11.538;2023-02-01T06:22:28;5.60;;;5.00;;
7412;SDS011;3748;48.136;11.538;2023-02-01T06:24:56;6.27;;;5.67;;
7412;SDS011;3748;48.136;11.538;2023-02-01T06:27:24;10.00;;;6.03;;
7412;SDS011;3748;48.136;11.538;2023-02-01T06:29:51;4.60;;;3.60;;
7412;SDS011;3748;48.136;11.538;2023-02-01T06:32:18;7.10;;;4.20;;
7412;SDS011;3748;48.136;11.538;2023-02-01T06:34:45;5.40;;;3.33;;
7412;SDS011;3748;48.136;11.538;2023-02-01T06:37:12;8.30;;;5.50;;
7412;SDS011;3748;48.136;11.538;2023-02-01T06:39:39;4.07;;;3.33;;
7412;SDS011;3748;48.136;11.538;2023-02-01T06:42:07;7.93;;;5.87;;
7412;SDS011;3748;48.136;11.538;2023-02-01T06:44:34;4.47;;;4.07;;
7412;SDS011;3748;48.136;11.538;2023-02-01T06:47:02;4.03;;;3.60;;
7412;SDS011;3748;48.136;11.538;2023-02-01T06:49:29;9.53;;;5.63;;
7412;SDS011;3748;48.136;11.538;2023-02-01T06:51:56;6.17;;;5.20;;
7412;SDS011;3748;48.136;11.538;2023-02-01T06:54:25;5.23;;;4.10;;
7412;SDS011;3748;48.136;11.538;2023-02-01T06:56:52;5.50;;;4.10;;
7412;SDS011;3748;48.136;11.538;2023-02-01T06:59:20;5.30;;;4.80;;
7412;SDS011;3748;48.136;11.538;2023-02-01T07:01:47;7.57;;;5.53;;
7412;SDS011;3748;48.136;11.538;2023-02-01T07:04:14;6.27;;;5.00;;
7412;SDS011;3748;48.136;11.538;2023-02-01T07:06:41;4.40;;;3.57;;
7412;SDS011;3748;48.136;11.538;2023-02-01T07:09:08;4.70;;;3.30;;
7412;SDS011;3748;48.136;11.538;2023-02-01T07:11:37;4.97;;;4.47;;
7412;SDS011;3748;48.136;11.538;2023-02-01T07:14:08;8.20;;;5.23;;
7412;SDS011;3748;48.136;11.538;2023-02-01T07:16:36;5.87;;;4.47;;
7412;SDS011;3748;48.136;11.538;2023-02-01T07:19:03;6.23;;;5.37;;
7412;SDS011;3748;48.136;11.538;2023-02-01T07:21:30;7.43;;;5.20;;
7412;SDS011;3748;48.136;11.538;2023-02-01T07:23:57;5.17;;;4.17;;
7412;SDS011;3748;48.136;11.538;2023-02-01T07:26:24;5.67;;;4.00;;
7412;SDS011;3748;48.136;11.538;2023-02-01T07:28:51;6.90;;;5.10;;
7412;SDS011;3748;48.136;11.538;2023-02-01T07:31:18;4.67;;;4.13;;
7412;SDS011;3748;48.136;11.538;2023-02-01T07:33:48;7.73;;;3.90;;
7412;SDS011;3748;48.136;11.538;2023-02-01T07:36:17;4.57;;;3.43;;
7412;SDS011;3748;48.136;11.538;2023-02-01T07:38:45;4.30;;;3.60;;
7412;SDS011;3748;48.136;11.538;2023-02-01T07:41:12;5.37;;;4.87;;
7412;SDS011;3748;48.136;11.538;2023-02-01T07:43:39;3.37;;;2.47;;
7412;SDS011;3748;48.136;11.538;2023-02-01T07:46:06;5.37;;;4.23;;
7412;SDS011;3748;48.136;11.538;2023-02-01T07:48:33;4.20;;;3.80;;
7412;SDS011;3748;48.136;11.538;2023-02-01T07:51:02;6.20;;;4.07;;
7412;SDS011;3748;48.136;11.538;2023-02-01T07:53:31;4.07;;;3.40;;
7412;SDS011;3748;48.136;11.538;2023-02-01T07:55:59;5.30;;;3.60;;
7412;SDS011;3748;48.136;11.538;2023-02-01T07:58:26;4.50;;;3.20;;
7412;SDS011;3748;48.136;11.538;2023-02-01T08:00:53;6.53;;;4.23;;
7412;SDS011;3748;48.136;11.538;2023-02-01T08:03:38;3.07;;;2.77;;
7412;SDS011;3748;48.136;11.538;2023-02-01T08:06:06;4.57;;;4.10;;
7412;SDS011;3748;48.136;11.538;2023-02-01T08:08:33;3.53;;;2.77;;
7412;SDS011;3748;48.136;11.538;2023-02-01T08:11:00;2.97;;;2.30;;
7412;SDS011;3748;48.136;11.538;2023-02-01T08:13:36;3.53;;;3.23;;
7412;SDS011;3748;48.136;11.538;2023-02-01T08:16:26;2.67;;;2.47;;
7412;SDS011;3748;48.136;11.538;2023-02-01T08:18:53;4.10;;;3.30;;
7412;SDS011;3748;48.136;11.538;2023-02-01T08:21:22;5.10;;;3.27;;
7412;SDS011;3748;48.136;11.538;2023-02-01T08:23:50;3.47;;;2.60;;
7412;SDS011;3748;48.136;11.538;2023-02-01T08:26:18;2.87;;;2.67;;
7412;SDS011;3748;48.136;11.538;2023-02-01T08:28:48;3.30;;;3.00;;
7412;SDS011;3748;48.136;11.538;2023-02-01T08:31:17;2.77;;;2.30;;
7412;SDS011;3748;48.136;11.538;2023-02-01T08:33:47;7.50;;;2.97;;
7412;SDS011;3748;48.136;11.538;2023-02-01T08:36:15;4.90;;;2.50;;
7412;SDS011;3748;48.136;11.538;2023-02-01T08:38:43;5.50;;;3.10;;
7412;SDS011;3748;48.136;11.538;2023-02-01T08:41:11;4.80;;;2.57;;
7412;SDS011;3748;48.136;11.538;2023-02-01T08:43:39;2.57;;;2.10;;
7412;SDS011;3748;48.136;11.538;2023-02-01T08:46:06;3.70;;;3.00;;
7412;SDS011;3748;48.136;11.538;2023-02-01T08:48:34;4.27;;;2.63;;
7412;SDS011;3748;48.136;11.538;2023-02-01T08:51:01;3.93;;;3.57;;
7412;SDS011;3748;48.136;11.538;2023-02-01T08:53:29;14.53;;;3.67;;
7412;SDS011;3748;48.136;11.538;2023-02-01T08:55:58;4.00;;;2.53;;
7412;SDS011;3748;48.136;11.538;2023-02-01T08:58:25;2.90;;;2.33;;
7412;SDS011;3748;48.136;11.538;2023-02-01T09:00:52;4.23;;;2.90;;
7412;SDS011;3748;48.136;11.538;2023-02-01T09:03:19;4.53;;;2.83;;
7412;SDS011;3748;48.136;11.538;2023-02-01T09:05:45;5.50;;;2.90;;
7412;SDS011;3748;48.136;11.538;2023-02-01T09:08:12;3.80;;;2.13;;
7412;SDS011;3748;48.136;11.538;2023-02-01T09:10:40;2.73;;;2.53;;
7412;SDS011;3748;48.136;11.538;2023-02-01T09:13:08;2.63;;;2.40;;
7412;SDS011;3748;48.136;11.538;2023-02-01T09:15:36;3.13;;;2.50;;
7412;SDS011;3748;48.136;11.538;2023-02-01T09:18:03;3.73;;;2.57;;
7412;SDS011;3748;48.136;11.538;2023-02-01T09:20:30;4.27;;;3.70;;
7412;SDS011;3748;48.136;11.538;2023-02-01T09:22:57;3.23;;;2.47;;
7412;SDS011;3748;48.136;11.538;2023-02-01T09:25:25;5.53;;;2.80;;
7412;SDS011;3748;48.136;11.538;2023-02-01T09:27:52;2.80;;;2.27;;
7412;SDS011;3748;48.136;11.538;2023-02-01T09:30:20;3.60;;;2.97;;
7412;SDS011;3748;48.136;11.538;2023-02-01T09:32:47;6.67;;;4.00;;
7412;SDS011;3748;48.136;11.538;2023-02-01T09:35:14;3.53;;;3.23;;
7412;SDS011;3748;48.136;11.538;2023-02-01T09:37:41;2.57;;;2.37;;
7412;SDS011;3748;48.136;11.538;2023-02-01T09:40:09;5.23;;;2.60;;
7412;SDS011;3748;48.136;11.538;2023-02-01T09:45:40;4.73;;;2.10;;
7412;SDS011;3748;48.136;11.538;2023-02-01T09:48:15;2.90;;;2.27;;
7412;SDS011;3748;48.136;11.538;2023-02-01T09:50:48;3.20;;;2.90;;
7412;SDS011;3748;48.136;11.538;2023-02-01T09:53:20;5.37;;;2.83;;
7412;SDS011;3748;48.136;11.538;2023-02-01T09:55:51;4.20;;;3.17;;
7412;SDS011;3748;48.136;11.538;2023-02-01T09:58:22;2.87;;;2.63;;
7412;SDS011;3748;48.136;11.538;2023-02-01T10:00:55;2.53;;;2.20;;
7412;SDS011;3748;48.136;11.538;2023-02-01T10:03:24;3.67;;;3.13;;
7412;SDS011;3748;48.136;11.538;2023-02-01T10:06:04;4.50;;;3.00;;
7412;SDS011;3748;48.136;11.538;2023-02-01T10:08:48;3.10;;;2.70;;
7412;SDS011;3748;48.136;11.538;2023-02-01T10:11:30;2.80;;;2.07;;
7412;SDS011;3748;48.136;11.538;2023-02-01T10:14:15;3.50;;;2.87;;
7412;SDS011;3748;48.136;11.538;2023-02-01T10:17:04;6.93;;;3.30;;
7412;SDS011;3748;48.136;11.538;2023-02-01T10:19:39;8.83;;;3.20;;
7412;SDS011;3748;48.136;11.538;2023-02-01T10:22:21;4.30;;;2.40;;
7412;SDS011;3748;48.136;11.538;2023-02-01T10:25:02;3.20;;;2.37;;
7412;SDS011;3748;48.136;11.538;2023-02-01T10:27:34;3.80;;;2.60;;
7412;SDS011;3748;48.136;11.538;2023-02-01T10:30:06;9.33;;;3.70;;
7412;SDS011;3748;48.136;11.538;2023-02-01T10:32:48;4.77;;;4.07;;
7412;SDS011;3748;48.136;11.538;2023-02-01T10:35:22;3.27;;;2.93;;
7412;SDS011;3748;48.136;11.538;2023-02-01T10:37:53;2.60;;;2.40;;
7412;SDS011;3748;48.136;11.538;2023-02-01T10:40:21;2.63;;;2.33;;
7412;SDS011;3748;48.136;11.538;2023-02-01T10:42:50;3.70;;;3.33;;
7412;SDS011;3748;48.136;11.538;2023-02-01T10:45:19;2.70;;;2.50;;
7412;SDS011;3748;48.136;11.538;2023-02-01T10:47:50;3.40;;;2.57;;
7412;SDS011;3748;48.136;11.538;2023-02-01T10:50:21;5.77;;;2.17;;
7412;SDS011;3748;48.136;11.538;2023-02-01T10:53:00;3.17;;;2.80;;
7412;SDS011;3748;48.136;11.538;2023-02-01T10:55:33;4.00;;;2.87;;
7412;SDS011;3748;48.136;11.538;2023-02-01T10:58:06;3.83;;;3.10;;
7412;SDS011;3748;48.136;11.538;2023-02-01T11:00:43;2.20;;;2.00;;
7412;SDS011;3748;48.136;11.538;2023-02-01T11:03:26;3.80;;;2.90;;
7412;SDS011;3748;48.136;11.538;2023-02-01T11:05:59;2.77;;;2.57;;
7412;SDS011;3748;48.136;11.538;2023-02-01T11:08:27;3.60;;;3.30;;
7412;SDS011;3748;48.136;11.538;2023-02-01T11:10:58;3.73;;;3.40;;
7412;SDS011;3748;48.136;11.538;2023-02-01T11:13:30;4.53;;;2.93;;
7412;SDS011;3748;48.136;11.538;2023-02-01T11:16:01;10.83;;;4.13;;
7412;SDS011;3748;48.136;11.538;2023-02-01T11:18:31;5.20;;;3.90;;
7412;SDS011;3748;48.136;11.538;2023-02-01T11:21:01;3.30;;;2.90;;
7412;SDS011;3748;48.136;11.538;2023-02-01T11:23:30;3.60;;;3.30;;
7412;SDS011;3748;48.136;11.538;2023-02-01T11:26:01;4.77;;;4.00;;
7412;SDS011;3748;48.136;11.538;2023-02-01T11:28:38;4.50;;;2.83;;
7412;SDS011;3748;48.136;11.538;2023-02-01T11:31:09;3.87;;;3.47;;
7412;SDS011;3748;48.136;11.538;2023-02-01T11:33:43;4.80;;;3.70;;
7412;SDS011;3748;48.136;11.538;2023-02-01T11:36:15;5.03;;;3.20;;
7412;SDS011;3748;48.136;11.538;2023-02-01T11:38:45;10.60;;;3.80;;
7412;SDS011;3748;48.136;11.538;2023-02-01T11:41:20;5.43;;;3.67;;
7412;SDS011;3748;48.136;11.538;2023-02-01T11:43:52;6.47;;;3.03;;
7412;SDS011;3748;48.136;11.538;2023-02-01T11:46:22;4.53;;;3.10;;
7412;SDS011;3748;48.136;11.538;2023-02-01T11:48:53;8.10;;;3.67;;
7412;SDS011;3748;48.136;11.538;2023-02-01T11:51:42;3.93;;;2.70;;
7412;SDS011;3748;48.136;11.538;2023-02-01T11:54:20;4.20;;;2.77;;
7412;SDS011;3748;48.136;11.538;2023-02-01T11:56:59;4.43;;;4.03;;
7412;SDS011;3748;48.136;11.538;2023-02-01T11:59:43;6.33;;;3.57;;
7412;SDS011;3748;48.136;11.538;2023-02-01T12:02:39;4.97;;;4.50;;
7412;SDS011;3748;48.136;11.538;2023-02-01T12:05:37;3.80;;;3.50;;
7412;SDS011;3748;48.136;11.538;2023-02-01T12:08:21;4.10;;;2.83;;
7412;SDS011;3748;48.136;11.538;2023-02-01T12:11:03;3.73;;;3.40;;
7412;SDS011;3748;48.136;11.538;2023-02-01T12:13:57;6.43;;;5.20;;
7412;SDS011;3748;48.136;11.538;2023-02-01T12:16:37;7.70;;;4.10;;
7412;SDS011;3748;48.136;11.538;2023-02-01T12:19:22;5.27;;;3.10;;
7412;SDS011;3748;48.136;11.538;2023-02-01T12:21:59;6.37;;;4.70;;
7412;SDS011;3748;48.136;11.538;2023-02-01T12:27:40;13.63;;;5.10;;
7412;SDS011;3748;48.136;11.538;2023-02-01T12:30:39;3.30;;;2.97;;
7412;SDS011;3748;48.136;11.538;2023-02-01T12:33:26;6.50;;;3.60;;
7412;SDS011;3748;48.136;11.538;2023-02-01T12:36:05;7.10;;;4.70;;
7412;SDS011;3748;48.136;11.538;2023-02-01T12:38:46;4.60;;;3.30;;
7412;SDS011;3748;48.136;11.538;2023-02-01T12:41:26;7.90;;;4.70;;
7412;SDS011;3748;48.136;11.538;2023-02-01T12:44:25;8.53;;;3.23;;
7412;SDS011;3748;48.136;11.538;2023-02-01T12:47:08;6.57;;;4.07;;
7412;SDS011;3748;48.136;11.538;2023-02-01T12:49:45;8.50;;;3.80;;
7412;SDS011;3748;48.136;11.538;2023-02-01T12:52:18;7.20;;;4.40;;
7412;SDS011;3748;48.136;11.538;2023-02-01T12:54:53;8.70;;;3.47;;
7412;SDS011;3748;48.136;11.538;2023-02-01T12:57:26;4.00;;;3.50;;
7412;SDS011;3748;48.136;11.538;2023-02-01T13:00:04;6.20;;;3.33;;
7412;SDS011;3748;48.136;11.538;2023-02-01T13:02:40;4.83;;;4.00;;
7412;SDS011;3748;48.136;11.538;2023-02-01T13:05:16;3.50;;;2.87;;
7412;SDS011;3748;48.136;11.538;2023-02-01T13:07:46;6.43;;;2.97;;
7412;SDS011;3748;48.136;11.538;2023-02-01T13:10:18;6.53;;;3.90;;
7412;SDS011;3748;48.136;11.538;2023-02-01T13:12:51;2.73;;;2.53;;
7412;SDS011;3748;48.136;11.538;2023-02-01T13:15:21;3.63;;;3.30;;
7412;SDS011;3748;48.136;11.538;2023-02-01T13:17:52;3.77;;;3.03;;
7412;SDS011;3748;48.136;11.538;2023-02-01T13:20:28;3.43;;;3.00;;
7412;SDS011;3748;48.136;11.538;2023-02-01T13:22:59;4.57;;;2.53;;
7412;SDS011;3748;48.136;11.538;2023-02-01T13:25:33;6.60;;;4.57;;
7412;SDS011;3748;48.136;11.538;2023-02-01T13:28:06;4.77;;;4.13;;
7412;SDS011;3748;48.136;11.538;2023-02-01T13:30:44;4.30;;;3.23;;
7412;SDS011;3748;48.136;11.538;2023-02-01T13:33:27;4.80;;;3.00;;
7412;SDS011;3748;48.136;11.538;2023-02-01T13:36:13;4.57;;;3.77;;
7412;SDS011;3748;48.136;11.538;2023-02-01T13:45:45;4.30;;;3.50;;
7412;SDS011;3748;48.136;11.538;2023-02-01T13:48:20;3.93;;;3.20;;
7412;SDS011;3748;48.136;11.538;2023-02-01T13:50:53;4.70;;;3.10;;
7412;SDS011;3748;48.136;11.538;2023-02-01T13:53:36;4.53;;;3.03;;
7412;SDS011;3748;48.136;11.538;2023-02-01T13:56:11;3.47;;;3.00;;
7412;SDS011;3748;48.136;11.538;2023-02-01T13:58:44;5.60;;;3.80;;
7412;SDS011;3748;48.136;11.538;2023-02-01T14:04:03;2.90;;;2.60;;
7412;SDS011;3748;48.136;11.538;2023-02-01T14:06:41;4.73;;;3.83;;
7412;SDS011;3748;48.136;11.538;2023-02-01T14:09:12;5.70;;;3.93;;
7412;SDS011;3748;48.136;11.538;2023-02-01T14:11:59;4.93;;;3.70;;
7412;SDS011;3748;48.136;11.538;2023-02-01T14:15:17;3.83;;;3.43;;
7412;SDS011;3748;48.136;11.538;2023-02-01T14:17:49;4.23;;;3.37;;
7412;SDS011;3748;48.136;11.538;2023-02-01T14:20:39;8.10;;;4.37;;
7412;SDS011;3748;48.136;11.538;2023-02-01T14:23:22;3.40;;;3.10;;
7412;SDS011;3748;48.136;11.538;2023-02-01T14:26:13;5.00;;;3.30;;
7412;SDS011;3748;48.136;11.538;2023-02-01T14:34:34;4.60;;;3.07;;
7412;SDS011;3748;48.136;11.538;2023-02-01T14:37:09;5.80;;;3.60;;
7412;SDS011;3748;48.136;11.538;2023-02-01T14:39:46;5.30;;;3.27;;
7412;SDS011;3748;48.136;11.538;2023-02-01T14:42:22;6.37;;;2.90;;
7412;SDS011;3748;48.136;11.538;2023-02-01T14:44:53;3.40;;;3.10;;
7412;SDS011;3748;48.136;11.538;2023-02-01T14:47:31;3.03;;;2.70;;
7412;SDS011;3748;48.136;11.538;2023-02-01T15:26:46;4.13;;;2.60;;
7412;SDS011;3748;48.136;11.538;2023-02-01T15:39:31;3.90;;;2.40;;
7412;SDS011;3748;48.136;11.538;2023-02-01T16:13:17;6.43;;;2.80;;
7412;SDS011;3748;48.136;11.538;2023-02-01T16:15:48;6.07;;;2.77;;
7412;SDS011;3748;48.136;11.538;2023-02-01T16:18:15;4.50;;;3.13;;
7412;SDS011;3748;48.136;11.538;2023-02-01T16:20:42;4.47;;;2.23;;
7412;SDS011;3748;48.136;11.538;2023-02-01T16:23:09;3.60;;;1.90;;
7412;SDS011;3748;48.136;11.538;2023-02-01T16:25:38;10.43;;;3.80;;
7412;SDS011;3748;48.136;11.538;2023-02-01T16:28:08;3.10;;;2.20;;
7412;SDS011;3748;48.136;11.538;2023-02-01T16:33:18;5.03;;;2.30;;
7412;SDS011;3748;48.136;11.538;2023-02-01T16:35:47;3.20;;;2.50;;
7412;SDS011;3748;48.136;11.538;2023-02-01T16:38:19;9.00;;;2.40;;
7412;SDS011;3748;48.136;11.538;2023-02-01T16:40:47;5.30;;;2.63;;
7412;SDS011;3748;48.136;11.538;2023-02-01T16:43:27;5.33;;;2.60;;
7412;SDS011;3748;48.136;11.538;2023-02-01T16:45:55;4.60;;;2.67;;
7412;SDS011;3748;48.136;11.538;2023-02-01T16:48:29;4.20;;;2.57;;
7412;SDS011;3748;48.136;11.538;2023-02-01T16:50:58;2.97;;;2.10;;
7412;SDS011;3748;48.136;11.538;2023-02-01T16:53:32;6.50;;;2.50;;
7412;SDS011;3748;48.136;11.538;2023-02-01T16:55:59;4.87;;;2.40;;
7412;SDS011;3748;48.136;11.538;2023-02-01T16:58:32;6.10;;;2.60;;
7412;SDS011;3748;48.136;11.538;2023-02-01T17:01:00;5.33;;;2.80;;
7412;SDS011;3748;48.136;11.538;2023-02-01T17:03:26;12.23;;;3.67;;
7412;SDS011;3748;48.136;11.538;2023-02-01T17:05:55;5.30;;;3.57;;
7412;SDS011;3748;48.136;11.538;2023-02-01T17:08:26;3.30;;;2.50;;
7412;SDS011;3748;48.136;11.538;2023-02-01T17:10:56;8.30;;;4.00;;
7412;SDS011;3748;48.136;11.538;2023-02-01T17:13:23;5.00;;;3.73;;
7412;SDS011;3748;48.136;11.538;2023-02-01T17:15:51;4.73;;;3.00;;